Connor, United Kingdom
Current Conditions -  °F | °C
As of 11:50 AM on Thursday 27 Nov 2014 (Local Time) from EGAA Reporting Station
Light Fog Light Fog  
Wind Chill: 38°   Ceiling: 4600
Heat Index: 41°   Visibility: 4mi
Dew Point: 41°   Wind: 5mph
Humidity: 100%   Direction: 90°E
Pressure: 29.53"   Gusts: NA
Location:  54.8°N, 6.2°W
Report Text: EGAA 271150Z 09004KT 6000 BCFG BKN046 05/05 Q1000
Loading
Personal Weather Stations






























Interactive Weather Map New forecast layout! Learn more

10-Day Weather Forecast

Advertisements
Track Severe Weather on mobile